sensor_id;sensor_type;location;lat;lon;timestamp;pressure;altitude;pressure_sealevel;temperature;humidity
28448;BME280;15675;52.870;-1.416;2023-03-31T00:02:17;98709.44;;;11.07;100.00
28448;BME280;15675;52.870;-1.416;2023-03-31T00:04:46;98707.72;;;11.05;100.00
28448;BME280;15675;52.870;-1.416;2023-03-31T00:07:18;98692.56;;;11.20;100.00
28448;BME280;15675;52.870;-1.416;2023-03-31T00:09:47;98675.91;;;11.27;100.00
28448;BME280;15675;52.870;-1.416;2023-03-31T00:12:14;98671.97;;;11.42;100.00
28448;BME280;15675;52.870;-1.416;2023-03-31T00:14:41;98658.63;;;11.26;100.00
28448;BME280;15675;52.870;-1.416;2023-03-31T00:17:08;98656.63;;;11.08;100.00
28448;BME280;15675;52.870;-1.416;2023-03-31T00:19:33;98654.03;;;11.08;100.00
28448;BME280;15675;52.870;-1.416;2023-03-31T00:21:59;98636.88;;;11.02;100.00
28448;BME280;15675;52.870;-1.416;2023-03-31T00:24:27;98638.13;;;10.88;100.00
28448;BME280;15675;52.870;-1.416;2023-03-31T00:26:57;98629.00;;;10.77;100.00
28448;BME280;15675;52.870;-1.416;2023-03-31T00:29:23;98614.97;;;10.82;100.00
28448;BME280;15675;52.870;-1.416;2023-03-31T00:31:48;98610.31;;;10.94;100.00
28448;BME280;15675;52.870;-1.416;2023-03-31T00:34:14;98606.56;;;11.02;100.00
28448;BME280;15675;52.870;-1.416;2023-03-31T00:36:39;98599.88;;;10.95;100.00
28448;BME280;15675;52.870;-1.416;2023-03-31T00:39:10;98588.75;;;10.92;100.00
28448;BME280;15675;52.870;-1.416;2023-03-31T00:41:37;98589.13;;;11.08;100.00
28448;BME280;15675;52.870;-1.416;2023-03-31T00:44:13;98571.38;;;10.94;100.00
28448;BME280;15675;52.870;-1.416;2023-03-31T00:47:02;98559.44;;;11.15;100.00
28448;BME280;15675;52.870;-1.416;2023-03-31T00:52:19;98544.66;;;10.90;100.00
28448;BME280;15675;52.870;-1.416;2023-03-31T00:54:49;98547.06;;;10.96;100.00
28448;BME280;15675;52.870;-1.416;2023-03-31T00:57:16;98545.38;;;10.95;100.00
28448;BME280;15675;52.870;-1.416;2023-03-31T01:00:02;98535.97;;;10.91;100.00
28448;BME280;15675;52.870;-1.416;2023-03-31T01:02:54;98530.50;;;11.00;100.00
28448;BME280;15675;52.870;-1.416;2023-03-31T01:05:32;98512.66;;;10.90;100.00
28448;BME280;15675;52.870;-1.416;2023-03-31T01:07:59;98511.72;;;10.92;100.00
28448;BME280;15675;52.870;-1.416;2023-03-31T01:10:25;98503.94;;;10.92;100.00
28448;BME280;15675;52.870;-1.416;2023-03-31T01:12:53;98486.31;;;11.27;100.00
28448;BME280;15675;52.870;-1.416;2023-03-31T01:15:20;98479.63;;;11.20;100.00
28448;BME280;15675;52.870;-1.416;2023-03-31T01:17:46;98455.06;;;11.05;100.00
28448;BME280;15675;52.870;-1.416;2023-03-31T01:20:37;98450.28;;;10.93;100.00
28448;BME280;15675;52.870;-1.416;2023-03-31T01:23:11;98441.91;;;11.10;100.00
28448;BME280;15675;52.870;-1.416;2023-03-31T01:34:56;98411.63;;;10.85;100.00
28448;BME280;15675;52.870;-1.416;2023-03-31T01:51:16;98360.59;;;10.84;100.00
28448;BME280;15675;52.870;-1.416;2023-03-31T01:59:03;98340.94;;;10.51;100.00
28448;BME280;15675;52.870;-1.416;2023-03-31T02:01:41;98324.28;;;10.59;100.00
28448;BME280;15675;52.870;-1.416;2023-03-31T02:06:39;98298.00;;;10.43;100.00
28448;BME280;15675;52.870;-1.416;2023-03-31T02:09:14;98296.00;;;10.51;100.00
28448;BME280;15675;52.870;-1.416;2023-03-31T02:11:40;98286.41;;;10.53;100.00
28448;BME280;15675;52.870;-1.416;2023-03-31T02:14:09;98282.28;;;10.73;100.00
28448;BME280;15675;52.870;-1.416;2023-03-31T02:16:38;98267.75;;;10.43;100.00
28448;BME280;15675;52.870;-1.416;2023-03-31T02:19:07;98269.53;;;10.66;100.00
28448;BME280;15675;52.870;-1.416;2023-03-31T02:21:36;98258.16;;;10.70;100.00
28448;BME280;15675;52.870;-1.416;2023-03-31T02:24:09;98242.47;;;10.74;100.00
28448;BME280;15675;52.870;-1.416;2023-03-31T02:26:39;98244.25;;;10.73;100.00
28448;BME280;15675;52.870;-1.416;2023-03-31T02:29:06;98236.59;;;10.68;100.00
28448;BME280;15675;52.870;-1.416;2023-03-31T02:31:47;98220.69;;;10.54;100.00
28448;BME280;15675;52.870;-1.416;2023-03-31T02:34:15;98212.25;;;10.49;100.00
28448;BME280;15675;52.870;-1.416;2023-03-31T02:36:41;98218.56;;;10.89;100.00
28448;BME280;15675;52.870;-1.416;2023-03-31T02:39:12;98199.91;;;10.79;100.00
28448;BME280;15675;52.870;-1.416;2023-03-31T02:41:38;98184.81;;;10.65;100.00
28448;BME280;15675;52.870;-1.416;2023-03-31T02:44:04;98181.16;;;10.71;100.00
28448;BME280;15675;52.870;-1.416;2023-03-31T02:46:30;98167.03;;;10.56;100.00
28448;BME280;15675;52.870;-1.416;2023-03-31T02:48:57;98165.22;;;10.58;100.00
28448;BME280;15675;52.870;-1.416;2023-03-31T02:51:27;98163.63;;;10.78;100.00
28448;BME280;15675;52.870;-1.416;2023-03-31T02:54:25;98148.00;;;10.79;100.00
28448;BME280;15675;52.870;-1.416;2023-03-31T03:02:52;98123.53;;;10.63;100.00
28448;BME280;15675;52.870;-1.416;2023-03-31T03:05:34;98115.22;;;10.55;100.00
28448;BME280;15675;52.870;-1.416;2023-03-31T03:11:15;98101.03;;;10.63;100.00
28448;BME280;15675;52.870;-1.416;2023-03-31T03:13:48;98100.72;;;10.49;100.00
28448;BME280;15675;52.870;-1.416;2023-03-31T03:16:23;98095.06;;;10.61;100.00
28448;BME280;15675;52.870;-1.416;2023-03-31T03:18:59;98072.47;;;10.41;100.00
28448;BME280;15675;52.870;-1.416;2023-03-31T03:21:25;98075.28;;;10.81;100.00
28448;BME280;15675;52.870;-1.416;2023-03-31T03:23:51;98064.47;;;10.69;100.00
28448;BME280;15675;52.870;-1.416;2023-03-31T03:26:18;98061.84;;;10.93;100.00
28448;BME280;15675;52.870;-1.416;2023-03-31T03:28:46;98044.22;;;10.79;100.00
28448;BME280;15675;52.870;-1.416;2023-03-31T03:31:13;98040.03;;;10.75;100.00
28448;BME280;15675;52.870;-1.416;2023-03-31T03:33:40;98031.88;;;10.84;100.00
28448;BME280;15675;52.870;-1.416;2023-03-31T03:36:06;98022.50;;;10.82;100.00
28448;BME280;15675;52.870;-1.416;2023-03-31T03:38:32;98028.88;;;10.51;100.00
28448;BME280;15675;52.870;-1.416;2023-03-31T03:40:57;98025.38;;;10.96;100.00
28448;BME280;15675;52.870;-1.416;2023-03-31T03:43:23;98010.03;;;10.90;100.00
28448;BME280;15675;52.870;-1.416;2023-03-31T03:45:49;98004.00;;;10.90;100.00
28448;BME280;15675;52.870;-1.416;2023-03-31T03:48:15;97998.84;;;10.67;100.00
28448;BME280;15675;52.870;-1.416;2023-03-31T03:50:41;97998.28;;;10.81;100.00
28448;BME280;15675;52.870;-1.416;2023-03-31T03:53:07;97990.06;;;10.70;100.00
28448;BME280;15675;52.870;-1.416;2023-03-31T03:55:33;97983.97;;;10.93;100.00
28448;BME280;15675;52.870;-1.416;2023-03-31T03:57:58;97979.97;;;10.84;100.00
28448;BME280;15675;52.870;-1.416;2023-03-31T04:00:24;97968.06;;;10.80;100.00
28448;BME280;15675;52.870;-1.416;2023-03-31T04:02:50;97965.78;;;10.73;100.00
28448;BME280;15675;52.870;-1.416;2023-03-31T04:05:15;97961.53;;;10.92;100.00
28448;BME280;15675;52.870;-1.416;2023-03-31T04:07:41;97955.94;;;10.81;100.00
28448;BME280;15675;52.870;-1.416;2023-03-31T04:10:07;97950.88;;;10.98;100.00
28448;BME280;15675;52.870;-1.416;2023-03-31T04:12:34;97947.06;;;10.86;100.00
28448;BME280;15675;52.870;-1.416;2023-03-31T04:15:00;97935.84;;;10.86;100.00
28448;BME280;15675;52.870;-1.416;2023-03-31T04:17:25;97944.34;;;11.10;100.00
28448;BME280;15675;52.870;-1.416;2023-03-31T04:20:06;97931.16;;;10.94;100.00
28448;BME280;15675;52.870;-1.416;2023-03-31T04:22:34;97915.94;;;10.64;100.00
28448;BME280;15675;52.870;-1.416;2023-03-31T04:25:09;97924.34;;;10.92;100.00
28448;BME280;15675;52.870;-1.416;2023-03-31T04:27:45;97916.19;;;10.80;100.00
28448;BME280;15675;52.870;-1.416;2023-03-31T04:30:14;97909.22;;;11.01;100.00
28448;BME280;15675;52.870;-1.416;2023-03-31T04:32:54;97911.41;;;10.90;100.00
28448;BME280;15675;52.870;-1.416;2023-03-31T04:35:22;97904.16;;;10.78;100.00
28448;BME280;15675;52.870;-1.416;2023-03-31T04:37:48;97906.13;;;10.93;100.00
28448;BME280;15675;52.870;-1.416;2023-03-31T04:40:15;97899.63;;;10.83;100.00
28448;BME280;15675;52.870;-1.416;2023-03-31T04:42:42;97891.97;;;10.80;100.00
28448;BME280;15675;52.870;-1.416;2023-03-31T04:45:08;97896.44;;;10.97;100.00
28448;BME280;15675;52.870;-1.416;2023-03-31T04:47:34;97888.34;;;10.84;100.00
28448;BME280;15675;52.870;-1.416;2023-03-31T04:50:00;97887.75;;;10.98;100.00
28448;BME280;15675;52.870;-1.416;2023-03-31T04:52:25;97886.53;;;11.26;100.00
28448;BME280;15675;52.870;-1.416;2023-03-31T04:54:51;97881.53;;;11.02;100.00
28448;BME280;15675;52.870;-1.416;2023-03-31T04:57:16;97878.34;;;10.95;100.00
28448;BME280;15675;52.870;-1.416;2023-03-31T04:59:42;97871.09;;;11.22;100.00
28448;BME280;15675;52.870;-1.416;2023-03-31T05:02:07;97867.00;;;10.98;100.00
28448;BME280;15675;52.870;-1.416;2023-03-31T05:04:33;97864.72;;;11.11;100.00
28448;BME280;15675;52.870;-1.416;2023-03-31T05:06:59;97851.81;;;11.28;100.00
28448;BME280;15675;52.870;-1.416;2023-03-31T05:09:24;97852.03;;;11.03;100.00
28448;BME280;15675;52.870;-1.416;2023-03-31T05:11:50;97853.16;;;10.97;100.00
28448;BME280;15675;52.870;-1.416;2023-03-31T05:14:15;97841.94;;;10.97;100.00
28448;BME280;15675;52.870;-1.416;2023-03-31T05:16:41;97842.78;;;10.97;100.00
28448;BME280;15675;52.870;-1.416;2023-03-31T05:19:07;97835.25;;;10.91;100.00
28448;BME280;15675;52.870;-1.416;2023-03-31T05:21:33;97841.94;;;10.97;100.00
28448;BME280;15675;52.870;-1.416;2023-03-31T05:23:58;97836.75;;;11.17;100.00
28448;BME280;15675;52.870;-1.416;2023-03-31T05:26:24;97829.63;;;11.02;100.00
28448;BME280;15675;52.870;-1.416;2023-03-31T05:28:51;97835.13;;;11.15;100.00
28448;BME280;15675;52.870;-1.416;2023-03-31T05:31:16;97826.44;;;10.95;100.00
28448;BME280;15675;52.870;-1.416;2023-03-31T05:33:43;97823.00;;;10.95;100.00
28448;BME280;15675;52.870;-1.416;2023-03-31T05:36:11;97825.13;;;11.05;100.00
28448;BME280;15675;52.870;-1.416;2023-03-31T05:38:37;97818.88;;;10.91;100.00
28448;BME280;15675;52.870;-1.416;2023-03-31T05:41:03;97829.09;;;10.94;100.00
28448;BME280;15675;52.870;-1.416;2023-03-31T05:43:29;97819.31;;;11.00;100.00
28448;BME280;15675;52.870;-1.416;2023-03-31T05:45:54;97827.09;;;11.00;100.00
28448;BME280;15675;52.870;-1.416;2023-03-31T05:48:20;97825.31;;;11.01;100.00
28448;BME280;15675;52.870;-1.416;2023-03-31T05:50:46;97823.31;;;11.08;100.00
28448;BME280;15675;52.870;-1.416;2023-03-31T05:53:11;97812.13;;;11.05;100.00
28448;BME280;15675;52.870;-1.416;2023-03-31T05:55:37;97814.34;;;11.15;100.00
28448;BME280;15675;52.870;-1.416;2023-03-31T05:58:03;97809.69;;;11.02;100.00
28448;BME280;15675;52.870;-1.416;2023-03-31T06:00:29;97818.50;;;11.19;100.00
28448;BME280;15675;52.870;-1.416;2023-03-31T06:02:55;97814.91;;;10.82;100.00
28448;BME280;15675;52.870;-1.416;2023-03-31T06:05:21;97814.56;;;11.10;100.00
28448;BME280;15675;52.870;-1.416;2023-03-31T06:07:51;97816.34;;;10.89;100.00
28448;BME280;15675;52.870;-1.416;2023-03-31T06:10:18;97809.69;;;11.02;100.00
28448;BME280;15675;52.870;-1.416;2023-03-31T06:12:44;97810.13;;;11.12;100.00
28448;BME280;15675;52.870;-1.416;2023-03-31T06:15:09;97811.91;;;10.91;100.00
28448;BME280;15675;52.870;-1.416;2023-03-31T06:17:35;97802.31;;;10.93;100.00
28448;BME280;15675;52.870;-1.416;2023-03-31T06:20:01;97801.31;;;10.96;100.00
28448;BME280;15675;52.870;-1.416;2023-03-31T06:22:26;97808.69;;;10.86;100.00
28448;BME280;15675;52.870;-1.416;2023-03-31T06:24:52;97809.00;;;11.18;100.00
28448;BME280;15675;52.870;-1.416;2023-03-31T06:27:17;97810.72;;;11.38;100.00
28448;BME280;15675;52.870;-1.416;2023-03-31T06:29:43;97816.59;;;11.61;100.00
28448;BME280;15675;52.870;-1.416;2023-03-31T06:32:08;97804.97;;;11.50;100.00
28448;BME280;15675;52.870;-1.416;2023-03-31T06:34:34;97803.16;;;11.70;100.00
28448;BME280;15675;52.870;-1.416;2023-03-31T06:36:59;97802.38;;;11.87;100.00
28448;BME280;15675;52.870;-1.416;2023-03-31T06:39:25;97795.00;;;11.60;100.00
28448;BME280;15675;52.870;-1.416;2023-03-31T06:41:51;97792.25;;;11.63;100.00
28448;BME280;15675;52.870;-1.416;2023-03-31T06:44:16;97793.09;;;11.45;100.00
28448;BME280;15675;52.870;-1.416;2023-03-31T06:46:43;97791.97;;;11.50;100.00
28448;BME280;15675;52.870;-1.416;2023-03-31T06:49:09;97787.03;;;11.44;100.00
28448;BME280;15675;52.870;-1.416;2023-03-31T06:51:34;97790.13;;;11.14;100.00
28448;BME280;15675;52.870;-1.416;2023-03-31T06:54:00;97790.34;;;11.10;100.00
28448;BME280;15675;52.870;-1.416;2023-03-31T06:56:26;97786.16;;;11.26;100.00
28448;BME280;15675;52.870;-1.416;2023-03-31T06:58:52;97794.38;;;11.36;100.00
28448;BME280;15675;52.870;-1.416;2023-03-31T07:01:17;97793.72;;;11.31;100.00
28448;BME280;15675;52.870;-1.416;2023-03-31T07:03:43;97786.28;;;11.42;100.00
28448;BME280;15675;52.870;-1.416;2023-03-31T07:06:08;97785.50;;;11.21;100.00
28448;BME280;15675;52.870;-1.416;2023-03-31T07:08:34;97788.66;;;11.47;100.00
28448;BME280;15675;52.870;-1.416;2023-03-31T07:11:00;97797.63;;;11.58;100.00
28448;BME280;15675;52.870;-1.416;2023-03-31T07:13:27;97790.69;;;11.59;100.00
28448;BME280;15675;52.870;-1.416;2023-03-31T07:15:53;97789.72;;;11.23;100.00
28448;BME280;15675;52.870;-1.416;2023-03-31T07:18:19;97793.59;;;11.53;100.00
28448;BME280;15675;52.870;-1.416;2023-03-31T07:20:48;97794.75;;;11.46;100.00
28448;BME280;15675;52.870;-1.416;2023-03-31T07:23:17;97795.69;;;11.45;100.00
28448;BME280;15675;52.870;-1.416;2023-03-31T07:25:43;97794.06;;;11.42;100.00
28448;BME280;15675;52.870;-1.416;2023-03-31T07:28:09;97799.09;;;11.64;100.00
28448;BME280;15675;52.870;-1.416;2023-03-31T07:30:35;97796.44;;;11.47;100.00
28448;BME280;15675;52.870;-1.416;2023-03-31T07:33:01;97801.84;;;11.61;100.00
28448;BME280;15675;52.870;-1.416;2023-03-31T07:35:27;97801.84;;;11.61;100.00
28448;BME280;15675;52.870;-1.416;2023-03-31T07:37:53;97798.69;;;11.73;100.00
28448;BME280;15675;52.870;-1.416;2023-03-31T07:40:23;97798.03;;;11.68;100.00
28448;BME280;15675;52.870;-1.416;2023-03-31T07:42:49;97797.78;;;11.36;100.00
28448;BME280;15675;52.870;-1.416;2023-03-31T07:45:17;97799.66;;;11.71;100.00
28448;BME280;15675;52.870;-1.416;2023-03-31T07:47:43;97794.00;;;11.44;100.00
28448;BME280;15675;52.870;-1.416;2023-03-31T07:50:11;97792.66;;;11.54;100.00
28448;BME280;15675;52.870;-1.416;2023-03-31T07:52:37;97796.50;;;11.64;100.00
28448;BME280;15675;52.870;-1.416;2023-03-31T07:55:03;97800.31;;;11.76;100.00
28448;BME280;15675;52.870;-1.416;2023-03-31T07:57:29;97799.09;;;11.64;100.00
28448;BME280;15675;52.870;-1.416;2023-03-31T07:59:55;97800.53;;;11.71;100.00
28448;BME280;15675;52.870;-1.416;2023-03-31T08:02:20;97805.97;;;11.84;100.00
28448;BME280;15675;52.870;-1.416;2023-03-31T08:04:46;97803.88;;;11.73;100.00
28448;BME280;15675;52.870;-1.416;2023-03-31T08:07:13;97810.34;;;11.65;100.00
28448;BME280;15675;52.870;-1.416;2023-03-31T08:09:40;97810.63;;;11.58;100.00
28448;BME280;15675;52.870;-1.416;2023-03-31T08:12:07;97809.63;;;11.61;100.00
28448;BME280;15675;52.870;-1.416;2023-03-31T08:14:32;97818.50;;;11.76;100.00
28448;BME280;15675;52.870;-1.416;2023-03-31T08:16:58;97816.38;;;11.65;100.00
28448;BME280;15675;52.870;-1.416;2023-03-31T08:19:25;97821.69;;;11.81;100.00
28448;BME280;15675;52.870;-1.416;2023-03-31T08:21:51;97814.06;;;11.59;100.00
28448;BME280;15675;52.870;-1.416;2023-03-31T08:24:17;97814.00;;;11.61;100.00
28448;BME280;15675;52.870;-1.416;2023-03-31T08:26:43;97817.84;;;11.71;100.00
28448;BME280;15675;52.870;-1.416;2023-03-31T08:29:08;97819.41;;;11.75;100.00
28448;BME280;15675;52.870;-1.416;2023-03-31T08:31:34;97810.69;;;11.57;100.00
28448;BME280;15675;52.870;-1.416;2023-03-31T08:34:00;97818.97;;;11.65;100.00
28448;BME280;15675;52.870;-1.416;2023-03-31T08:36:27;97823.59;;;11.97;100.00
28448;BME280;15675;52.870;-1.416;2023-03-31T08:38:54;97822.25;;;12.07;100.00
28448;BME280;15675;52.870;-1.416;2023-03-31T08:44:40;97816.91;;;12.10;100.00
28448;BME280;15675;52.870;-1.416;2023-03-31T08:47:19;97816.22;;;12.06;100.00
28448;BME280;15675;52.870;-1.416;2023-03-31T08:49:59;97820.44;;;11.90;100.00
28448;BME280;15675;52.870;-1.416;2023-03-31T08:53:03;97821.19;;;11.92;100.00
28448;BME280;15675;52.870;-1.416;2023-03-31T08:55:41;97821.00;;;11.97;100.00
28448;BME280;15675;52.870;-1.416;2023-03-31T09:00:53;97827.16;;;12.13;100.00
28448;BME280;15675;52.870;-1.416;2023-03-31T09:03:36;97831.66;;;11.90;100.00
28448;BME280;15675;52.870;-1.416;2023-03-31T09:06:09;97833.56;;;11.87;100.00
28448;BME280;15675;52.870;-1.416;2023-03-31T09:08:45;97833.94;;;11.98;100.00
28448;BME280;15675;52.870;-1.416;2023-03-31T09:11:21;97838.94;;;12.03;100.00
28448;BME280;15675;52.870;-1.416;2023-03-31T09:16:47;97846.59;;;12.23;100.00
28448;BME280;15675;52.870;-1.416;2023-03-31T09:20:22;97844.44;;;12.14;100.00
28448;BME280;15675;52.870;-1.416;2023-03-31T09:22:34;97847.88;;;12.15;100.00
28448;BME280;15675;52.870;-1.416;2023-03-31T09:25:12;97849.66;;;12.14;100.00
28448;BME280;15675;52.870;-1.416;2023-03-31T09:27:41;97849.69;;;12.13;100.00
28448;BME280;15675;52.870;-1.416;2023-03-31T09:30:15;97852.94;;;12.35;100.00
28448;BME280;15675;52.870;-1.416;2023-03-31T09:32:51;97852.94;;;12.18;100.00
28448;BME280;15675;52.870;-1.416;2023-03-31T09:35:23;97856.91;;;12.25;100.00
28448;BME280;15675;52.870;-1.416;2023-03-31T09:37:52;97861.38;;;12.40;100.00
28448;BME280;15675;52.870;-1.416;2023-03-31T09:40:23;97855.34;;;12.40;100.00
28448;BME280;15675;52.870;-1.416;2023-03-31T09:46:16;97860.91;;;12.50;100.00
28448;BME280;15675;52.870;-1.416;2023-03-31T09:48:51;97851.59;;;12.63;100.00
28448;BME280;15675;52.870;-1.416;2023-03-31T09:51:22;97858.63;;;12.96;100.00
28448;BME280;15675;52.870;-1.416;2023-03-31T09:54:24;97857.03;;;12.76;100.00
28448;BME280;15675;52.870;-1.416;2023-03-31T09:59:15;97868.75;;;12.67;100.00
28448;BME280;15675;52.870;-1.416;2023-03-31T10:01:43;97876.41;;;12.70;100.00
28448;BME280;15675;52.870;-1.416;2023-03-31T10:04:18;97868.88;;;12.99;100.00
28448;BME280;15675;52.870;-1.416;2023-03-31T10:06:45;97871.00;;;12.91;100.00
28448;BME280;15675;52.870;-1.416;2023-03-31T10:09:11;97881.88;;;12.99;100.00
28448;BME280;15675;52.870;-1.416;2023-03-31T10:11:38;97887.38;;;12.40;100.00
28448;BME280;15675;52.870;-1.416;2023-03-31T10:14:10;97886.59;;;12.21;100.00
28448;BME280;15675;52.870;-1.416;2023-03-31T10:16:52;97898.44;;;12.26;100.00
28448;BME280;15675;52.870;-1.416;2023-03-31T10:19:26;97894.22;;;12.60;100.00
28448;BME280;15675;52.870;-1.416;2023-03-31T10:24:22;97897.88;;;12.74;100.00
28448;BME280;15675;52.870;-1.416;2023-03-31T10:26:51;97912.28;;;13.16;100.00
28448;BME280;15675;52.870;-1.416;2023-03-31T10:29:22;97916.81;;;13.12;100.00
28448;BME280;15675;52.870;-1.416;2023-03-31T10:31:50;97914.81;;;13.00;100.00
28448;BME280;15675;52.870;-1.416;2023-03-31T10:34:16;97911.97;;;13.05;100.00
28448;BME280;15675;52.870;-1.416;2023-03-31T10:36:48;97917.03;;;13.25;100.00
28448;BME280;15675;52.870;-1.416;2023-03-31T10:39:17;97926.97;;;13.00;100.00
28448;BME280;15675;52.870;-1.416;2023-03-31T10:41:49;97925.25;;;12.83;100.00
28448;BME280;15675;52.870;-1.416;2023-03-31T10:44:54;97922.00;;;12.77;100.00
28448;BME280;15675;52.870;-1.416;2023-03-31T10:47:34;97927.44;;;12.73;100.00
28448;BME280;15675;52.870;-1.416;2023-03-31T10:50:03;97933.09;;;13.16;100.00
28448;BME280;15675;52.870;-1.416;2023-03-31T10:52:43;97937.72;;;12.93;100.00
28448;BME280;15675;52.870;-1.416;2023-03-31T10:55:13;97949.56;;;13.17;100.00
28448;BME280;15675;52.870;-1.416;2023-03-31T10:57:52;97951.72;;;13.08;100.00
28448;BME280;15675;52.870;-1.416;2023-03-31T11:01:22;97947.75;;;13.19;100.00
28448;BME280;15675;52.870;-1.416;2023-03-31T11:05:59;97956.69;;;13.13;100.00
28448;BME280;15675;52.870;-1.416;2023-03-31T11:14:10;97975.44;;;12.85;100.00
28448;BME280;15675;52.870;-1.416;2023-03-31T11:16:44;97975.28;;;12.88;100.00
28448;BME280;15675;52.870;-1.416;2023-03-31T11:22:06;97987.88;;;13.15;100.00
28448;BME280;15675;52.870;-1.416;2023-03-31T11:25:06;97981.00;;;13.31;100.00
28448;BME280;15675;52.870;-1.416;2023-03-31T11:30:42;97992.44;;;13.62;100.00
28448;BME280;15675;52.870;-1.416;2023-03-31T11:41:36;98013.78;;;13.53;100.00
28448;BME280;15675;52.870;-1.416;2023-03-31T11:44:08;98010.66;;;13.79;100.00
28448;BME280;15675;52.870;-1.416;2023-03-31T11:54:18;98029.53;;;12.97;100.00
28448;BME280;15675;52.870;-1.416;2023-03-31T11:56:45;98034.94;;;12.92;100.00
28448;BME280;15675;52.870;-1.416;2023-03-31T11:59:14;98032.19;;;13.50;100.00
28448;BME280;15675;52.870;-1.416;2023-03-31T12:04:33;98042.63;;;13.83;100.00
28448;BME280;15675;52.870;-1.416;2023-03-31T12:07:18;98040.59;;;13.55;100.00
28448;BME280;15675;52.870;-1.416;2023-03-31T12:12:29;98044.84;;;14.24;100.00
28448;BME280;15675;52.870;-1.416;2023-03-31T12:15:24;98046.31;;;13.79;100.00
28448;BME280;15675;52.870;-1.416;2023-03-31T12:18:28;98058.53;;;13.61;100.00
28448;BME280;15675;52.870;-1.416;2023-03-31T12:20:52;98065.75;;;13.02;100.00
28448;BME280;15675;52.870;-1.416;2023-03-31T12:23:23;98082.69;;;12.55;100.00
28448;BME280;15675;52.870;-1.416;2023-03-31T12:28:25;98076.22;;;12.83;100.00
28448;BME280;15675;52.870;-1.416;2023-03-31T12:30:54;98086.09;;;13.30;100.00
28448;BME280;15675;52.870;-1.416;2023-03-31T12:33:31;98083.09;;;13.20;100.00
28448;BME280;15675;52.870;-1.416;2023-03-31T12:38:36;98092.19;;;13.66;100.00
28448;BME280;15675;52.870;-1.416;2023-03-31T12:41:19;98093.75;;;13.16;100.00
28448;BME280;15675;52.870;-1.416;2023-03-31T12:44:13;98103.19;;;12.99;100.00
28448;BME280;15675;52.870;-1.416;2023-03-31T12:52:58;98131.53;;;12.29;100.00
28448;BME280;15675;52.870;-1.416;2023-03-31T12:55:28;98134.88;;;12.52;100.00
28448;BME280;15675;52.870;-1.416;2023-03-31T13:01:13;98142.25;;;12.61;100.00
28448;BME280;15675;52.870;-1.416;2023-03-31T13:03:46;98149.94;;;12.64;100.00
28448;BME280;15675;52.870;-1.416;2023-03-31T13:08:55;98163.06;;;12.61;100.00
28448;BME280;15675;52.870;-1.416;2023-03-31T13:11:44;98170.75;;;12.64;100.00
28448;BME280;15675;52.870;-1.416;2023-03-31T13:14:23;98178.06;;;12.75;100.00
28448;BME280;15675;52.870;-1.416;2023-03-31T13:16:52;98175.31;;;12.78;100.00
28448;BME280;15675;52.870;-1.416;2023-03-31T13:19:30;98188.03;;;12.46;100.00
28448;BME280;15675;52.870;-1.416;2023-03-31T13:22:01;98190.03;;;12.39;100.00
28448;BME280;15675;52.870;-1.416;2023-03-31T13:24:29;98193.44;;;12.41;100.00
28448;BME280;15675;52.870;-1.416;2023-03-31T13:26:57;98200.28;;;12.63;100.00
28448;BME280;15675;52.870;-1.416;2023-03-31T13:29:43;98200.72;;;12.92;100.00
28448;BME280;15675;52.870;-1.416;2023-03-31T13:34:45;98205.84;;;12.93;100.00
28448;BME280;15675;52.870;-1.416;2023-03-31T13:37:42;98224.09;;;12.54;100.00
28448;BME280;15675;52.870;-1.416;2023-03-31T13:43:06;98225.78;;;12.75;100.00
28448;BME280;15675;52.870;-1.416;2023-03-31T13:48:35;98229.25;;;13.14;100.00
28448;BME280;15675;52.870;-1.416;2023-03-31T13:54:14;98235.97;;;12.99;100.00
28448;BME280;15675;52.870;-1.416;2023-03-31T13:56:51;98239.00;;;12.90;100.00
28448;BME280;15675;52.870;-1.416;2023-03-31T14:05:08;98247.28;;;12.79;100.00
28448;BME280;15675;52.870;-1.416;2023-03-31T14:10:28;98262.09;;;13.17;100.00
28448;BME280;15675;52.870;-1.416;2023-03-31T14:15:33;98270.97;;;13.12;100.00
28448;BME280;15675;52.870;-1.416;2023-03-31T14:18:01;98289.91;;;12.76;100.00
28448;BME280;15675;52.870;-1.416;2023-03-31T14:20:31;98296.00;;;12.96;100.00
28448;BME280;15675;52.870;-1.416;2023-03-31T14:26:04;98290.84;;;13.34;100.00
28448;BME280;15675;52.870;-1.416;2023-03-31T14:29:04;98285.06;;;13.08;100.00
28448;BME280;15675;52.870;-1.416;2023-03-31T14:37:14;98305.22;;;13.03;100.00
28448;BME280;15675;52.870;-1.416;2023-03-31T14:39:48;98304.84;;;13.70;100.00
28448;BME280;15675;52.870;-1.416;2023-03-31T14:42:20;98312.44;;;13.17;100.00
28448;BME280;15675;52.870;-1.416;2023-03-31T14:44:46;98317.28;;;13.06;100.00
28448;BME280;15675;52.870;-1.416;2023-03-31T14:47:23;98324.03;;;13.50;100.00
28448;BME280;15675;52.870;-1.416;2023-03-31T14:50:16;98334.75;;;13.23;100.00
28448;BME280;15675;52.870;-1.416;2023-03-31T14:52:50;98335.75;;;13.00;100.00
28448;BME280;15675;52.870;-1.416;2023-03-31T14:55:25;98344.25;;;12.84;100.00
28448;BME280;15675;52.870;-1.416;2023-03-31T14:57:53;98356.56;;;12.60;100.00
28448;BME280;15675;52.870;-1.416;2023-03-31T15:00:26;98352.47;;;12.32;100.00
28448;BME280;15675;52.870;-1.416;2023-03-31T15:02:54;98355.00;;;12.97;100.00
28448;BME280;15675;52.870;-1.416;2023-03-31T15:05:30;98361.88;;;12.98;100.00
28448;BME280;15675;52.870;-1.416;2023-03-31T15:08:05;98367.44;;;12.70;100.00
28448;BME280;15675;52.870;-1.416;2023-03-31T15:10:36;98376.06;;;12.91;100.00
28448;BME280;15675;52.870;-1.416;2023-03-31T15:13:11;98369.56;;;12.81;100.00
28448;BME280;15675;52.870;-1.416;2023-03-31T15:15:39;98384.34;;;12.80;100.00
28448;BME280;15675;52.870;-1.416;2023-03-31T15:18:05;98387.97;;;12.76;100.00
28448;BME280;15675;52.870;-1.416;2023-03-31T15:20:35;98378.91;;;13.05;100.00
28448;BME280;15675;52.870;-1.416;2023-03-31T15:23:04;98391.91;;;13.07;100.00